createdAt,value
2018-02-11T00:02:14.323Z,78.70
2018-02-11T00:04:41.769Z,78.60
2018-02-11T00:07:09.184Z,77.70
2018-02-11T00:09:36.629Z,78.50
2018-02-11T00:12:04.074Z,79.50
2018-02-11T00:14:31.503Z,78.60
2018-02-11T00:16:58.947Z,79.10
2018-02-11T00:19:26.856Z,78.80
2018-02-11T00:21:55.096Z,79.10
2018-02-11T00:24:22.563Z,79.70
2018-02-11T00:26:49.989Z,80.10
2018-02-11T00:29:18.195Z,78.90
2018-02-11T00:31:45.645Z,78.90
2018-02-11T00:34:13.149Z,78.80
2018-02-11T00:36:46.310Z,78.80
2018-02-11T00:39:13.732Z,78.10
2018-02-11T00:41:41.951Z,79.80
2018-02-11T00:44:09.396Z,79.90
2018-02-11T00:46:36.843Z,80.20
2018-02-11T00:49:04.268Z,80.90
2018-02-11T00:51:32.464Z,81.60
2018-02-11T00:53:59.900Z,81.50
2018-02-11T00:56:27.336Z,81.90
2018-02-11T00:58:54.784Z,81.40
2018-02-11T01:01:22.221Z,81.70
2018-02-11T01:03:49.648Z,81.80
2018-02-11T01:06:17.081Z,81.90
2018-02-11T01:08:44.511Z,82.50
2018-02-11T01:11:11.940Z,83.10
2018-02-11T01:13:39.389Z,83.10
2018-02-11T01:16:06.853Z,82.90
2018-02-11T01:18:34.304Z,82.20
2018-02-11T01:21:01.759Z,83.00
2018-02-11T01:23:29.252Z,83.50
2018-02-11T01:25:56.699Z,83.40
2018-02-11T01:28:24.119Z,84.30
2018-02-11T01:30:52.324Z,86.10
2018-02-11T01:33:19.759Z,86.00
2018-02-11T01:35:47.185Z,87.70
2018-02-11T01:38:14.624Z,90.10
2018-02-11T01:40:42.060Z,90.60
2018-02-11T01:43:09.572Z,90.60
2018-02-11T01:45:37.764Z,91.10
2018-02-11T01:48:05.222Z,91.10
2018-02-11T01:50:32.681Z,91.00
2018-02-11T01:53:00.104Z,90.70
2018-02-11T01:55:27.536Z,90.80
2018-02-11T01:57:54.985Z,90.90
2018-02-11T02:00:23.201Z,90.50
2018-02-11T02:02:50.636Z,90.50
2018-02-11T02:05:18.069Z,90.70
2018-02-11T02:07:45.507Z,91.30
2018-02-11T02:10:12.938Z,91.20
2018-02-11T02:12:41.150Z,91.30
2018-02-11T02:15:08.576Z,91.30
2018-02-11T02:17:36.771Z,92.00
2018-02-11T02:20:04.199Z,92.00
2018-02-11T02:22:32.425Z,91.90
2018-02-11T02:24:59.840Z,91.90
2018-02-11T02:27:28.046Z,92.30
2018-02-11T02:29:55.472Z,92.30
2018-02-11T02:32:23.678Z,93.20
2018-02-11T02:34:51.125Z,93.20
2018-02-11T02:37:18.588Z,92.80
2018-02-11T02:39:46.085Z,93.00
2018-02-11T02:42:13.514Z,93.20
2018-02-11T02:44:40.953Z,93.40
2018-02-11T02:47:08.389Z,93.60
2018-02-11T02:49:36.588Z,93.80
2018-02-11T02:52:04.022Z,93.80
2018-02-11T02:54:32.211Z,93.50
2018-02-11T02:56:59.648Z,93.50
2018-02-11T02:59:27.183Z,93.70
2018-02-11T03:01:54.609Z,93.40
2018-02-11T03:04:22.044Z,93.20
2018-02-11T03:06:49.486Z,93.80
2018-02-11T03:09:17.676Z,94.10
2018-02-11T03:11:45.132Z,94.00
2018-02-11T03:14:12.596Z,94.10
2018-02-11T03:16:40.040Z,94.20
2018-02-11T03:19:07.471Z,94.70
2018-02-11T03:21:34.937Z,95.10
2018-02-11T03:24:03.135Z,94.70
2018-02-11T03:26:30.577Z,94.90
2018-02-11T03:28:58.771Z,95.00
2018-02-11T03:31:27.124Z,95.00
2018-02-11T03:33:55.320Z,95.00
2018-02-11T03:36:22.760Z,95.00
2018-02-11T03:38:50.190Z,95.00
2018-02-11T03:41:17.647Z,94.80
2018-02-11T03:43:45.076Z,94.60
2018-02-11T03:46:12.512Z,94.70
2018-02-11T03:48:39.947Z,94.50
2018-02-11T03:51:08.152Z,94.60
2018-02-11T03:53:35.595Z,94.50
2018-02-11T03:56:03.779Z,93.70
2018-02-11T03:58:31.224Z,93.70
2018-02-11T04:00:59.416Z,93.90
2018-02-11T04:03:27.761Z,93.90
2018-02-11T04:05:56.088Z,94.80
2018-02-11T04:08:23.517Z,94.70
2018-02-11T04:10:50.945Z,94.50
2018-02-11T04:13:18.390Z,95.20
2018-02-11T04:15:45.813Z,95.00
2018-02-11T04:18:13.245Z,95.20
2018-02-11T04:20:40.664Z,95.20
2018-02-11T04:23:08.104Z,96.00
2018-02-11T04:25:35.558Z,96.00
2018-02-11T04:28:03.013Z,96.10
2018-02-11T04:30:30.449Z,95.70
2018-02-11T04:32:57.869Z,95.40
2018-02-11T04:35:26.060Z,95.70
2018-02-11T04:37:53.484Z,95.60
2018-02-11T04:40:20.919Z,96.10
2018-02-11T04:42:48.358Z,95.90
2018-02-11T04:45:15.785Z,96.00
2018-02-11T04:47:43.986Z,96.70
2018-02-11T04:50:11.420Z,96.60
2018-02-11T04:52:38.845Z,96.50
2018-02-11T04:55:06.304Z,96.70
2018-02-11T04:57:33.731Z,96.50
2018-02-11T05:00:01.221Z,96.10
2018-02-11T05:02:28.677Z,96.30
2018-02-11T05:04:56.128Z,96.10
2018-02-11T05:07:23.581Z,96.40
2018-02-11T05:09:51.045Z,96.00
2018-02-11T05:12:18.472Z,96.20
2018-02-11T05:14:46.000Z,96.20
2018-02-11T05:17:14.209Z,95.80
2018-02-11T05:19:41.639Z,95.80
2018-02-11T05:22:09.064Z,96.00
2018-02-11T05:24:37.264Z,96.40
2018-02-11T05:27:04.709Z,96.10
2018-02-11T05:29:32.915Z,96.10
2018-02-11T05:32:00.382Z,96.10
2018-02-11T05:34:28.284Z,96.30
2018-02-11T05:36:55.711Z,96.60
2018-02-11T05:39:23.170Z,95.90
2018-02-11T05:41:50.599Z,96.20
2018-02-11T05:44:18.049Z,96.90
2018-02-11T05:46:45.505Z,97.10
2018-02-11T05:49:13.707Z,98.00
2018-02-11T05:51:42.080Z,98.00
2018-02-11T05:54:09.507Z,98.00
2018-02-11T05:56:37.721Z,97.90
2018-02-11T05:59:05.164Z,97.90
2018-02-11T06:01:32.600Z,97.70
2018-02-11T06:04:00.820Z,98.00
2018-02-11T06:06:28.326Z,97.90
2018-02-11T06:08:55.741Z,97.30
2018-02-11T06:11:23.188Z,97.10
2018-02-11T06:13:50.634Z,97.20
2018-02-11T06:16:18.070Z,97.30
2018-02-11T06:18:45.503Z,97.30
2018-02-11T06:21:12.968Z,96.70
2018-02-11T06:23:41.174Z,96.50
2018-02-11T06:26:08.715Z,96.50
2018-02-11T06:28:36.916Z,97.40
2018-02-11T06:31:04.340Z,97.40
2018-02-11T06:33:32.552Z,97.40
2018-02-11T06:35:59.993Z,97.30
2018-02-11T06:38:28.345Z,97.50
2018-02-11T06:40:56.548Z,97.60
2018-02-11T06:43:23.984Z,97.60
2018-02-11T06:45:52.200Z,97.40
2018-02-11T06:48:19.660Z,97.70
2018-02-11T06:50:47.107Z,97.10
2018-02-11T06:53:14.580Z,97.30
2018-02-11T06:55:42.028Z,97.30
2018-02-11T06:58:09.459Z,97.40
2018-02-11T07:00:36.919Z,97.10
2018-02-11T07:03:04.369Z,97.50
2018-02-11T07:05:32.569Z,97.40
2018-02-11T07:07:59.995Z,97.40
2018-02-11T07:10:29.148Z,97.10
2018-02-11T07:12:56.572Z,97.10
2018-02-11T07:15:24.004Z,97.00
2018-02-11T07:17:52.198Z,97.70
2018-02-11T07:20:19.831Z,97.70
2018-02-11T07:22:47.261Z,97.30
2018-02-11T07:25:14.713Z,97.40
2018-02-11T07:27:42.160Z,97.70
2018-02-11T07:30:09.604Z,97.30
2018-02-11T07:32:37.034Z,97.30
2018-02-11T07:35:05.241Z,97.00
2018-02-11T07:37:32.683Z,97.00
2018-02-11T07:40:00.103Z,97.00
2018-02-11T07:42:27.542Z,97.50
2018-02-11T07:44:54.961Z,97.10
2018-02-11T07:47:22.408Z,97.20
2018-02-11T07:49:49.836Z,97.20
2018-02-11T07:52:18.049Z,98.10
2018-02-11T07:54:45.484Z,98.00
2018-02-11T07:57:13.692Z,97.90
2018-02-11T07:59:41.160Z,97.80
2018-02-11T08:02:08.608Z,97.70
2018-02-11T08:04:36.062Z,97.90
2018-02-11T08:07:03.502Z,97.70
2018-02-11T08:09:30.949Z,97.50
2018-02-11T08:11:59.141Z,97.80
2018-02-11T08:14:26.564Z,97.90
2018-02-11T08:16:54.786Z,97.40
2018-02-11T08:19:22.223Z,97.40
2018-02-11T08:21:49.652Z,97.90
2018-02-11T08:24:17.852Z,98.00
2018-02-11T08:26:45.296Z,98.00
2018-02-11T08:29:13.491Z,97.80
2018-02-11T08:31:40.912Z,97.70
2018-02-11T08:34:08.380Z,97.80
2018-02-11T08:36:35.788Z,97.50
2018-02-11T08:39:03.231Z,97.40
2018-02-11T08:41:30.660Z,97.80
2018-02-11T08:43:58.863Z,97.30
2018-02-11T08:46:26.293Z,97.20
2018-02-11T08:48:54.497Z,97.90
2018-02-11T08:51:21.912Z,97.90
2018-02-11T08:53:50.135Z,98.20
2018-02-11T08:56:17.564Z,98.20
2018-02-11T08:58:45.017Z,98.30
2018-02-11T09:01:13.232Z,98.30
2018-02-11T09:03:40.645Z,98.30
2018-02-11T09:06:08.856Z,99.00
2018-02-11T09:08:36.317Z,99.00
2018-02-11T09:11:03.739Z,98.60
2018-02-11T09:13:31.169Z,98.40
2018-02-11T09:15:58.596Z,98.50
2018-02-11T09:18:26.056Z,98.60
2018-02-11T09:20:53.496Z,98.50
2018-02-11T09:23:21.399Z,98.30
2018-02-11T09:25:48.830Z,98.40
2018-02-11T09:28:16.287Z,98.60
2018-02-11T09:30:43.704Z,98.20
2018-02-11T09:33:11.897Z,97.80
2018-02-11T09:35:39.332Z,97.80
2018-02-11T09:38:07.524Z,97.40
2018-02-11T09:40:34.987Z,97.40
2018-02-11T09:43:02.459Z,96.90
2018-02-11T09:45:29.893Z,97.20
2018-02-11T09:47:57.322Z,97.00
2018-02-11T09:50:24.743Z,96.90
2018-02-11T09:52:52.949Z,96.80
2018-02-11T09:55:20.382Z,96.80
2018-02-11T09:57:47.825Z,96.10
2018-02-11T10:00:15.303Z,96.40
2018-02-11T10:02:42.747Z,96.50
2018-02-11T10:05:10.341Z,96.90
2018-02-11T10:07:37.806Z,96.50
2018-02-11T10:10:05.233Z,96.30
2018-02-11T10:12:32.667Z,96.00
2018-02-11T10:15:00.116Z,96.20
2018-02-11T10:17:29.230Z,96.20
2018-02-11T10:19:56.672Z,96.10
2018-02-11T10:22:24.113Z,97.00
2018-02-11T10:24:51.546Z,97.00
2018-02-11T10:27:18.972Z,97.10
2018-02-11T10:29:46.424Z,96.70
2018-02-11T10:32:13.845Z,96.40
2018-02-11T10:34:41.277Z,96.20
2018-02-11T10:37:09.467Z,96.00
2018-02-11T10:39:36.896Z,95.90
2018-02-11T10:42:04.364Z,95.50
2018-02-11T10:44:31.813Z,95.00
2018-02-11T10:46:59.240Z,94.70
2018-02-11T10:49:26.673Z,95.20
2018-02-11T10:51:54.116Z,95.30
2018-02-11T10:54:21.597Z,94.90
2018-02-11T10:56:49.796Z,92.80
2018-02-11T10:59:17.247Z,92.80
2018-02-11T11:01:45.447Z,92.30
2018-02-11T11:04:12.888Z,92.30
2018-02-11T11:06:40.332Z,92.50
2018-02-11T11:09:07.773Z,92.70
2018-02-11T11:11:35.226Z,92.30
2018-02-11T11:14:02.671Z,92.40
2018-02-11T11:16:30.135Z,92.70
2018-02-11T11:18:57.568Z,92.70
2018-02-11T11:21:25.760Z,93.80
2018-02-11T11:23:53.188Z,93.80
2018-02-11T11:26:20.619Z,92.80
2018-02-11T11:28:48.053Z,93.50
2018-02-11T11:31:15.492Z,94.00
2018-02-11T11:33:42.915Z,94.10
2018-02-11T11:36:10.357Z,93.80
2018-02-11T11:38:37.812Z,94.10
2018-02-11T11:41:05.254Z,94.20
2018-02-11T11:43:32.683Z,92.30
2018-02-11T11:46:00.116Z,92.20
2018-02-11T11:48:29.232Z,92.50
2018-02-11T11:50:56.660Z,92.50
2018-02-11T11:53:24.861Z,92.10
2018-02-11T11:55:52.295Z,92.00
2018-02-11T11:58:20.549Z,91.50
2018-02-11T12:00:48.725Z,92.60
2018-02-11T12:03:16.177Z,92.60
2018-02-11T12:05:43.602Z,92.00
2018-02-11T12:08:11.037Z,93.00
2018-02-11T12:10:38.460Z,94.10
2018-02-11T12:13:05.893Z,94.20
2018-02-11T12:15:33.317Z,94.20
2018-02-11T12:18:00.754Z,95.60
2018-02-11T12:20:29.868Z,96.70
2018-02-11T12:22:57.309Z,96.60
2018-02-11T12:25:25.510Z,97.80
2018-02-11T12:27:52.944Z,97.80
2018-02-11T12:30:21.196Z,97.90
2018-02-11T12:32:48.623Z,97.90
2018-02-11T12:35:16.825Z,97.60
2018-02-11T12:37:44.248Z,97.60
2018-02-11T12:40:11.827Z,97.80
2018-02-11T12:42:39.253Z,96.90
2018-02-11T12:45:06.679Z,96.40
2018-02-11T12:47:34.868Z,96.80
2018-02-11T12:50:02.304Z,96.80
2018-02-11T12:52:30.920Z,95.80
2018-02-11T12:54:58.344Z,95.80
2018-02-11T12:57:26.549Z,97.30
2018-02-11T12:59:53.971Z,97.20
2018-02-11T13:02:22.181Z,96.60
2018-02-11T13:04:49.621Z,96.50
2018-02-11T13:07:17.808Z,96.30
2018-02-11T13:09:45.253Z,96.20
2018-02-11T13:12:13.452Z,96.50
2018-02-11T13:14:40.872Z,96.40
2018-02-11T13:17:09.088Z,96.70
2018-02-11T13:19:36.514Z,96.60
2018-02-11T13:22:04.710Z,96.40
2018-02-11T13:24:32.237Z,96.40
2018-02-11T13:27:00.428Z,97.10
2018-02-11T13:29:28.621Z,97.50
2018-02-11T13:31:56.055Z,97.40
2018-02-11T13:34:24.258Z,96.10
2018-02-11T13:36:51.673Z,96.10
2018-02-11T13:39:19.884Z,96.80
2018-02-11T13:41:48.090Z,96.20
2018-02-11T13:44:15.528Z,96.20
2018-02-11T13:46:43.765Z,96.50
2018-02-11T13:49:12.178Z,96.10
2018-02-11T13:51:39.620Z,96.00
2018-02-11T13:54:07.042Z,95.40
2018-02-11T13:56:34.477Z,95.30
2018-02-11T13:59:01.916Z,95.30
2018-02-11T14:01:30.252Z,94.90
2018-02-11T14:03:58.441Z,95.00
2018-02-11T14:06:25.864Z,95.00
2018-02-11T14:08:53.315Z,94.20
2018-02-11T14:11:20.748Z,94.50
2018-02-11T14:13:48.186Z,93.70
2018-02-11T14:16:15.623Z,92.30
2018-02-11T14:18:43.284Z,92.60
2018-02-11T14:21:11.473Z,92.10
2018-02-11T14:23:38.903Z,92.10
2018-02-11T14:26:07.091Z,91.80
2018-02-11T14:28:35.292Z,92.20
2018-02-11T14:31:02.717Z,92.20
2018-02-11T14:33:30.452Z,91.70
2018-02-11T14:35:57.902Z,93.30
2018-02-11T14:38:25.348Z,92.30
2018-02-11T14:40:52.878Z,92.50
2018-02-11T14:43:20.363Z,92.70
2018-02-11T14:45:47.802Z,92.50
2018-02-11T14:48:15.220Z,92.30
2018-02-11T14:50:43.420Z,92.70
2018-02-11T14:53:10.848Z,92.70
2018-02-11T14:55:38.281Z,92.70
2018-02-11T14:58:05.713Z,93.70
2018-02-11T15:00:34.032Z,95.00
2018-02-11T15:03:01.466Z,95.10
2018-02-11T15:05:28.899Z,93.90
2018-02-11T15:07:56.339Z,93.90
2018-02-11T15:10:24.519Z,93.20
2018-02-11T15:12:51.944Z,93.20
2018-02-11T15:15:20.143Z,92.60
2018-02-11T15:17:47.571Z,92.50
2018-02-11T15:20:15.772Z,93.00
2018-02-11T15:22:43.204Z,93.00
2018-02-11T15:25:10.645Z,92.30
2018-02-11T15:27:38.067Z,92.20
2018-02-11T15:30:05.541Z,92.30
2018-02-11T15:32:32.985Z,92.40
2018-02-11T15:35:00.426Z,92.60
2018-02-11T15:37:27.873Z,92.60
2018-02-11T15:39:55.299Z,92.60
2018-02-11T15:42:22.757Z,92.50
2018-02-11T15:44:50.180Z,93.00
2018-02-11T15:47:17.669Z,92.50
2018-02-11T15:49:45.093Z,92.20
2018-02-11T15:52:12.561Z,92.60
2018-02-11T15:54:40.040Z,92.60
2018-02-11T15:57:07.498Z,92.70
2018-02-11T15:59:34.964Z,92.80
2018-02-11T16:02:02.411Z,93.50
2018-02-11T16:04:30.625Z,93.70
2018-02-11T16:06:58.060Z,93.00
2018-02-11T16:09:26.249Z,92.40
2018-02-11T16:11:54.497Z,92.40
2018-02-11T16:14:21.924Z,92.40
2018-02-11T16:16:49.371Z,90.60
2018-02-11T16:19:16.801Z,91.10
2018-02-11T16:21:45.030Z,91.00
2018-02-11T16:24:12.461Z,91.00
2018-02-11T16:26:39.900Z,91.10
2018-02-11T16:29:07.361Z,90.90
2018-02-11T16:34:08.784Z,91.50
2018-02-11T16:36:36.206Z,90.30
2018-02-11T16:39:03.641Z,91.20
2018-02-11T16:41:31.068Z,91.00
2018-02-11T16:43:59.277Z,90.50
2018-02-11T16:46:26.700Z,90.50
2018-02-11T16:48:54.926Z,91.40
2018-02-11T16:51:22.349Z,91.00
2018-02-11T16:53:50.561Z,91.60
2018-02-11T16:56:18.000Z,91.60
2018-02-11T16:58:45.468Z,91.60
2018-02-11T17:01:12.978Z,91.90
2018-02-11T17:03:40.401Z,91.70
2018-02-11T17:06:07.824Z,91.60
2018-02-11T17:08:35.274Z,91.60
2018-02-11T17:11:02.696Z,92.10
2018-02-11T17:13:31.064Z,92.30
2018-02-11T17:16:04.107Z,92.50
2018-02-11T17:18:31.596Z,92.70
2018-02-11T17:20:59.025Z,92.60
2018-02-11T17:23:26.485Z,92.30
2018-02-11T17:25:54.267Z,92.60
2018-02-11T17:28:21.672Z,92.60
2018-02-11T17:30:49.870Z,92.80
2018-02-11T17:33:18.066Z,92.60
2018-02-11T17:35:45.500Z,92.60
2018-02-11T17:38:12.923Z,92.80
2018-02-11T17:40:40.372Z,92.80
2018-02-11T17:43:07.813Z,93.10
2018-02-11T17:45:35.257Z,93.40
2018-02-11T17:48:02.705Z,93.00
2018-02-11T17:50:31.057Z,92.90
2018-02-11T17:52:59.262Z,93.20
2018-02-11T17:55:26.708Z,93.10
2018-02-11T17:57:54.149Z,93.10
2018-02-11T18:00:22.353Z,92.40
2018-02-11T18:02:49.788Z,92.40
2018-02-11T18:05:17.216Z,91.80
2018-02-11T18:07:44.663Z,92.30
2018-02-11T18:10:12.090Z,92.70
2018-02-11T18:12:39.534Z,92.50
2018-02-11T18:15:06.956Z,92.30
2018-02-11T18:17:35.156Z,92.00
2018-02-11T18:20:02.597Z,92.00
2018-02-11T18:22:31.733Z,91.50
2018-02-11T18:24:59.149Z,91.50
2018-02-11T18:27:27.345Z,91.10
2018-02-11T18:29:54.776Z,91.10
2018-02-11T18:32:22.972Z,91.30
2018-02-11T18:34:50.399Z,91.20
2018-02-11T18:37:17.833Z,91.20
2018-02-11T18:39:45.264Z,91.50
2018-02-11T18:42:12.704Z,90.90
2018-02-11T18:44:40.137Z,90.80
2018-02-11T18:47:08.361Z,90.70
2018-02-11T18:49:35.861Z,90.70
2018-02-11T18:52:03.330Z,91.90
2018-02-11T18:54:31.240Z,91.80
2018-02-11T18:56:58.677Z,91.30
2018-02-11T18:59:26.137Z,91.40
2018-02-11T19:01:53.653Z,91.10
2018-02-11T19:04:21.092Z,91.40
2018-02-11T19:06:48.559Z,91.30
2018-02-11T19:09:15.988Z,90.90
2018-02-11T19:11:44.231Z,90.90
2018-02-11T19:14:12.601Z,90.60
2018-02-11T19:16:40.802Z,90.70
2018-02-11T19:19:08.241Z,90.30
2018-02-11T19:21:36.434Z,90.10
2018-02-11T19:24:03.884Z,90.10
2018-02-11T19:26:31.579Z,90.00
2018-02-11T19:28:59.043Z,89.60
2018-02-11T19:31:26.534Z,90.00
2018-02-11T19:33:53.993Z,90.50
2018-02-11T19:36:21.455Z,90.50
2018-02-11T19:38:48.899Z,90.60
2018-02-11T19:41:16.320Z,91.00
2018-02-11T19:43:43.756Z,90.40
2018-02-11T19:46:11.203Z,90.70
2018-02-11T19:48:38.656Z,90.40
2018-02-11T19:51:06.882Z,91.00
2018-02-11T19:53:34.571Z,91.00
2018-02-11T19:56:01.997Z,91.10
2018-02-11T19:58:29.493Z,90.70
2018-02-11T20:00:56.929Z,90.30
2018-02-11T20:03:24.413Z,90.50
2018-02-11T20:05:51.853Z,90.50
2018-02-11T20:08:19.295Z,91.10
2018-02-11T20:10:46.742Z,91.00
2018-02-11T20:13:14.160Z,90.90
2018-02-11T20:15:41.588Z,91.00
2018-02-11T20:18:09.028Z,91.50
2018-02-11T20:20:36.460Z,91.30
2018-02-11T20:23:03.881Z,91.50
2018-02-11T20:25:32.690Z,91.50
2018-02-11T20:28:00.125Z,91.50
2018-02-11T20:30:28.342Z,91.50
2018-02-11T20:32:55.820Z,91.50
2018-02-11T20:35:23.208Z,92.20
2018-02-11T20:37:51.402Z,92.00
2018-02-11T20:40:18.840Z,92.00
2018-02-11T20:42:47.052Z,91.70
2018-02-11T20:45:14.520Z,91.70
2018-02-11T20:47:41.979Z,91.60
2018-02-11T20:50:09.452Z,91.70
2018-02-11T20:52:36.883Z,91.80
2018-02-11T20:55:04.349Z,91.70
2018-02-11T20:57:32.724Z,91.80
2018-02-11T21:00:00.169Z,91.80
2018-02-11T21:02:27.624Z,91.50
2018-02-11T21:04:55.066Z,91.20
2018-02-11T21:07:23.300Z,91.50
2018-02-11T21:09:50.828Z,91.50
2018-02-11T21:12:18.253Z,91.80
2018-02-11T21:14:46.460Z,91.80
2018-02-11T21:17:13.889Z,91.80
2018-02-11T21:19:42.109Z,91.50
2018-02-11T21:22:09.548Z,91.50
2018-02-11T21:24:37.009Z,91.60
2018-02-11T21:27:04.449Z,91.30
2018-02-11T21:29:32.067Z,91.30
2018-02-11T21:31:59.492Z,92.70
2018-02-11T21:34:26.947Z,93.40
2018-02-11T21:36:54.408Z,94.50
2018-02-11T21:39:21.836Z,96.10
2018-02-11T21:41:50.001Z,97.00
2018-02-11T21:44:18.233Z,97.00
2018-02-11T21:46:45.660Z,97.00
2018-02-11T21:49:13.100Z,96.00
2018-02-11T21:51:40.552Z,95.80
2018-02-11T21:54:08.757Z,96.40
2018-02-11T21:56:36.211Z,96.30
2018-02-11T21:59:03.657Z,96.00
2018-02-11T22:01:32.012Z,96.20
2018-02-11T22:04:00.246Z,96.80
2018-02-11T22:06:27.698Z,96.70
2018-02-11T22:08:55.139Z,97.00
2018-02-11T22:11:22.589Z,96.60
2018-02-11T22:13:50.021Z,96.60
2018-02-11T22:16:18.220Z,96.90
2018-02-11T22:18:45.646Z,96.90
2018-02-11T22:21:13.841Z,97.00
2018-02-11T22:23:41.269Z,96.90
2018-02-11T22:26:08.712Z,96.50
2018-02-11T22:28:36.157Z,96.40
2018-02-11T22:31:03.610Z,96.20
2018-02-11T22:33:31.961Z,96.20
2018-02-11T22:35:59.388Z,96.00
2018-02-11T22:38:27.618Z,95.70
2018-02-11T22:40:55.016Z,95.70
2018-02-11T22:43:23.209Z,95.50
2018-02-11T22:45:50.638Z,95.50
2018-02-11T22:48:18.071Z,95.20
2018-02-11T22:50:45.526Z,95.00
2018-02-11T22:53:12.970Z,94.80
2018-02-11T22:55:40.396Z,94.80
2018-02-11T22:58:07.844Z,94.50
2018-02-11T23:00:36.049Z,95.10
2018-02-11T23:03:03.479Z,95.10
2018-02-11T23:05:32.600Z,95.30
2018-02-11T23:08:00.053Z,95.30
2018-02-11T23:10:27.500Z,95.60
2018-02-11T23:12:54.936Z,96.00
2018-02-11T23:15:23.132Z,95.90
2018-02-11T23:17:50.600Z,95.80
2018-02-11T23:20:18.036Z,95.50
2018-02-11T23:22:46.262Z,95.10
2018-02-11T23:25:13.668Z,95.10
2018-02-11T23:27:41.114Z,94.80
2018-02-11T23:30:09.308Z,94.50
2018-02-11T23:32:36.756Z,94.70
2018-02-11T23:35:04.939Z,95.20
2018-02-11T23:37:32.376Z,95.20
2018-02-11T23:40:00.582Z,94.50
2018-02-11T23:42:27.999Z,94.40
2018-02-11T23:44:55.427Z,94.40
2018-02-11T23:47:22.869Z,94.40
2018-02-11T23:49:50.296Z,94.30
2018-02-11T23:52:17.723Z,94.40
2018-02-11T23:54:45.156Z,94.60
2018-02-11T23:57:12.595Z,94.60
2018-02-11T23:59:40.023Z,94.80
